Time;durP1;ratioP1;P1;durP2;ratioP2;P2;SDS_P1;SDS_P2;PMS_P1;PMS_P2;Temp;Humidity;BMP_temperature;BMP_pressure;BME280_temperature;BME280_humidity;BME280_pressure;Samples;Min_cycle;Max_cycle;Signal;HPM_P1;HPM_P2
2021/10/13 00:01:46;;;;;;;;;3.00;3.00;;;;;;;;2773445;51;8785;-64
2021/10/13 00:04:11;;;;;;;;;4.50;4.50;;;;;;;;2773443;51;9437;-65
2021/10/13 00:06:37;;;;;;;;;1.25;1.25;;;;;;;;2773328;51;8850;-65
2021/10/13 00:09:03;;;;;;;;;3.50;2.25;;;;;;;;2773481;51;8787;-64
2021/10/13 00:11:28;;;;;;;;;1.25;1.25;;;;;;;;2773582;51;8872;-64
2021/10/13 00:13:54;;;;;;;;;1.75;1.50;;;;;;;;2773733;51;8767;-64
2021/10/13 00:16:19;;;;;;;;;6.25;5.00;;;;;;;;2773526;51;8793;-64
2021/10/13 00:18:45;;;;;;;;;4.00;2.75;;;;;;;;2773147;51;8794;-65
2021/10/13 00:21:11;;;;;;;;;2.25;2.00;;;;;;;;2773437;51;8763;-65
2021/10/13 00:23:36;;;;;;;;;3.00;2.00;;;;;;;;2773160;51;8892;-64
2021/10/13 00:26:02;;;;;;;;;6.00;2.50;;;;;;;;2773246;51;8763;-65
2021/10/13 00:28:28;;;;;;;;;2.00;2.00;;;;;;;;2773260;51;8767;-64
2021/10/13 00:30:54;;;;;;;;;6.40;2.80;;;;;;;;2773138;51;8783;-64
2021/10/13 00:33:20;;;;;;;;;2.00;2.00;;;;;;;;2773161;51;9423;-64
2021/10/13 00:35:45;;;;;;;;;2.00;2.00;;;;;;;;2773114;51;8886;-64
2021/10/13 00:38:11;;;;;;;;;2.25;2.25;;;;;;;;2773115;51;8783;-65
2021/10/13 00:40:37;;;;;;;;;6.00;2.50;;;;;;;;2773123;51;8883;-65
2021/10/13 00:43:02;;;;;;;;;2.50;1.50;;;;;;;;2773187;51;8771;-64
2021/10/13 00:45:28;;;;;;;;;1.75;1.75;;;;;;;;2773182;51;8754;-64
2021/10/13 00:47:54;;;;;;;;;3.00;1.75;;;;;;;;2773088;51;8785;-65
2021/10/13 00:50:19;;;;;;;;;2.00;2.00;;;;;;;;2777798;51;8763;-65
2021/10/13 00:52:45;;;;;;;;;2.25;1.50;;;;;;;;2773442;51;9479;-64
2021/10/13 00:55:17;;;;;;;;;1.25;1.25;;;;;;;;2773350;51;8783;-63
2021/10/13 00:57:43;;;;;;;;;1.80;1.80;;;;;;;;2773278;51;9378;-64
2021/10/13 01:00:09;;;;;;;;;2.00;2.00;;;;;;;;2772935;51;8925;-64
2021/10/13 01:02:41;;;;;;;;;1.40;1.00;;;;;;;;2773011;51;8889;-64
2021/10/13 01:05:07;;;;;;;;;0.80;0.80;;;;;;;;2773552;51;8759;-65
2021/10/13 01:07:44;;;;;;;;;2.75;2.00;;;;;;;;2773093;51;8864;-65
2021/10/13 01:10:31;;;;;;;;;1.40;1.00;;;;;;;;2773096;51;8775;-63
2021/10/13 01:13:16;;;;;;;;;2.40;2.00;;;;;;;;2773315;51;8806;-65
2021/10/13 01:16:06;;;;;;;;;2.60;1.40;;;;;;;;2772972;51;8893;-64
2021/10/13 01:18:38;;;;;;;;;1.20;1.20;;;;;;;;2773090;51;9021;-64
2021/10/13 01:21:17;;;;;;;;;2.00;2.00;;;;;;;;2773276;51;8784;-64
2021/10/13 01:23:43;;;;;;;;;1.25;1.25;;;;;;;;2772975;51;8783;-64
2021/10/13 01:26:27;;;;;;;;;2.75;1.75;;;;;;;;2773221;51;8792;-64
2021/10/13 01:28:56;;;;;;;;;1.60;1.40;;;;;;;;2772885;51;8782;-64
2021/10/13 01:31:41;;;;;;;;;2.80;2.80;;;;;;;;2772898;51;8801;-65
2021/10/13 01:34:09;;;;;;;;;2.40;2.00;;;;;;;;2772968;51;8786;-64
2021/10/13 01:36:39;;;;;;;;;1.00;1.00;;;;;;;;2772975;51;8771;-64
2021/10/13 01:39:05;;;;;;;;;1.80;1.40;;;;;;;;2772813;51;8782;-65
2021/10/13 01:41:33;;;;;;;;;1.00;1.00;;;;;;;;2772925;51;8785;-65
2021/10/13 01:44:01;;;;;;;;;2.00;1.80;;;;;;;;2772863;51;8770;-65
2021/10/13 01:46:27;;;;;;;;;1.20;1.00;;;;;;;;2772909;51;8766;-64
2021/10/13 01:48:55;;;;;;;;;1.00;1.00;;;;;;;;2773100;51;8798;-64
2021/10/13 01:51:21;;;;;;;;;1.00;1.00;;;;;;;;2773033;51;8778;-64
2021/10/13 01:53:48;;;;;;;;;3.80;1.80;;;;;;;;2772797;51;8778;-65
2021/10/13 01:56:15;;;;;;;;;1.20;0.40;;;;;;;;2773245;51;8790;-64
2021/10/13 01:58:41;;;;;;;;;1.00;1.00;;;;;;;;2772719;51;8938;-64
2021/10/13 02:01:10;;;;;;;;;2.80;2.80;;;;;;;;2772834;51;8798;-66
2021/10/13 02:03:36;;;;;;;;;3.40;2.20;;;;;;;;2772787;51;8766;-63
2021/10/13 02:06:02;;;;;;;;;2.00;1.00;;;;;;;;2772962;51;8762;-64
2021/10/13 02:08:29;;;;;;;;;2.20;2.20;;;;;;;;2773257;51;8778;-63
2021/10/13 02:10:59;;;;;;;;;1.40;1.40;;;;;;;;2773849;51;8762;-64
2021/10/13 02:13:29;;;;;;;;;2.20;2.20;;;;;;;;2773795;51;8767;-64
2021/10/13 02:15:55;;;;;;;;;2.00;2.00;;;;;;;;2773626;51;8893;-64
2021/10/13 02:18:23;;;;;;;;;2.25;2.25;;;;;;;;2773730;51;8796;-64
2021/10/13 02:20:51;;;;;;;;;4.60;2.00;;;;;;;;2773782;51;8884;-64
2021/10/13 02:23:20;;;;;;;;;2.60;2.60;;;;;;;;2773906;51;8762;-64
2021/10/13 02:25:48;;;;;;;;;1.00;1.00;;;;;;;;2773897;51;8864;-63
2021/10/13 02:28:16;;;;;;;;;2.00;2.00;;;;;;;;2773896;51;8755;-63
2021/10/13 02:30:44;;;;;;;;;4.00;2.40;;;;;;;;2773957;51;8751;-65
2021/10/13 02:33:09;;;;;;;;;3.00;3.00;;;;;;;;2773420;51;9414;-65
2021/10/13 02:35:35;;;;;;;;;1.25;1.25;;;;;;;;2773795;51;8781;-66
2021/10/13 02:38:00;;;;;;;;;1.00;1.00;;;;;;;;2773745;51;8758;-64
2021/10/13 02:40:26;;;;;;;;;2.33;2.00;;;;;;;;2773940;51;8778;-64
2021/10/13 02:42:52;;;;;;;;;2.25;2.00;;;;;;;;2773618;51;8762;-65
2021/10/13 02:45:18;;;;;;;;;2.80;2.00;;;;;;;;2773917;51;8762;-64
2021/10/13 02:47:51;;;;;;;;;2.60;2.00;;;;;;;;2773559;51;8747;-64
2021/10/13 02:50:22;;;;;;;;;2.00;2.00;;;;;;;;2773701;51;8763;-64
2021/10/13 02:53:10;;;;;;;;;2.00;2.00;;;;;;;;2773807;51;8786;-64
2021/10/13 02:55:48;;;;;;;;;2.00;1.00;;;;;;;;2773772;51;8866;-64
2021/10/13 02:58:20;;;;;;;;;2.20;2.20;;;;;;;;2773675;51;8766;-64
2021/10/13 03:00:47;;;;;;;;;1.40;1.20;;;;;;;;2773688;51;8789;-64
2021/10/13 03:03:23;;;;;;;;;1.40;1.40;;;;;;;;2774051;51;8790;-65
2021/10/13 03:05:50;;;;;;;;;2.00;2.00;;;;;;;;2774024;51;8751;-65
2021/10/13 03:08:18;;;;;;;;;2.60;2.00;;;;;;;;2773487;51;8888;-65
2021/10/13 03:10:46;;;;;;;;;3.00;2.00;;;;;;;;2773411;51;9448;-65
2021/10/13 03:13:14;;;;;;;;;3.00;2.00;;;;;;;;2773701;51;8794;-65
2021/10/13 03:15:41;;;;;;;;;2.00;2.00;;;;;;;;2773488;51;8785;-64
2021/10/13 03:18:08;;;;;;;;;3.00;3.00;;;;;;;;2773558;51;8774;-65
2021/10/13 03:20:33;;;;;;;;;1.60;1.60;;;;;;;;2773339;51;8783;-66
2021/10/13 03:23:00;;;;;;;;;1.75;1.75;;;;;;;;2773846;51;8871;-65
2021/10/13 03:25:27;;;;;;;;;1.80;0.60;;;;;;;;2773615;51;8798;-66
2021/10/13 03:27:52;;;;;;;;;1.00;1.00;;;;;;;;2773585;51;8766;-65
2021/10/13 03:30:18;;;;;;;;;2.80;2.80;;;;;;;;2773301;51;8869;-65
2021/10/13 03:32:44;;;;;;;;;1.50;1.50;;;;;;;;2773456;51;8987;-65
2021/10/13 03:35:10;;;;;;;;;2.40;2.00;;;;;;;;2773440;51;8779;-65
2021/10/13 03:37:36;;;;;;;;;6.50;3.00;;;;;;;;2773426;51;8868;-63
2021/10/13 03:40:01;;;;;;;;;1.00;1.00;;;;;;;;2773277;51;8872;-66
2021/10/13 03:42:27;;;;;;;;;5.25;2.00;;;;;;;;2773452;51;8778;-65
2021/10/13 03:44:53;;;;;;;;;3.50;3.50;;;;;;;;2773457;51;11539;-65
2021/10/13 03:47:18;;;;;;;;;1.75;1.75;;;;;;;;2773597;51;8901;-64
2021/10/13 03:49:44;;;;;;;;;2.25;1.75;;;;;;;;2773210;51;8793;-65
2021/10/13 03:52:09;;;;;;;;;1.50;1.50;;;;;;;;2773363;51;8762;-64
2021/10/13 03:54:35;;;;;;;;;2.25;1.00;;;;;;;;2773452;51;8763;-65
2021/10/13 03:57:01;;;;;;;;;2.00;2.00;;;;;;;;2773736;51;8826;-63
2021/10/13 03:59:26;;;;;;;;;1.00;1.00;;;;;;;;2773248;51;8825;-64
2021/10/13 04:01:52;;;;;;;;;2.00;1.00;;;;;;;;2773396;51;8785;-65
2021/10/13 04:04:17;;;;;;;;;3.00;2.00;;;;;;;;2773406;51;8783;-66
2021/10/13 04:06:43;;;;;;;;;1.00;1.00;;;;;;;;2773205;51;8785;-65
2021/10/13 04:09:09;;;;;;;;;6.75;3.75;;;;;;;;2773176;51;8912;-66
2021/10/13 04:11:34;;;;;;;;;2.75;2.75;;;;;;;;2773182;51;8822;-66
2021/10/13 04:14:00;;;;;;;;;0.00;0.00;;;;;;;;2773682;51;8771;-65
2021/10/13 04:16:25;;;;;;;;;1.25;1.00;;;;;;;;2773146;51;8864;-65
2021/10/13 04:18:51;;;;;;;;;3.50;2.00;;;;;;;;2772973;51;8964;-67
2021/10/13 04:21:17;;;;;;;;;2.00;2.00;;;;;;;;2773380;51;8762;-66
2021/10/13 04:23:42;;;;;;;;;1.00;1.00;;;;;;;;2773356;51;8770;-63
2021/10/13 04:26:08;;;;;;;;;2.00;2.00;;;;;;;;2773205;51;8893;-66
2021/10/13 04:28:34;;;;;;;;;5.00;2.33;;;;;;;;2773239;51;8800;-65
2021/10/13 04:30:59;;;;;;;;;2.25;2.25;;;;;;;;2772825;51;8787;-64
2021/10/13 04:33:25;;;;;;;;;6.75;3.00;;;;;;;;2772986;51;8960;-65
2021/10/13 04:35:50;;;;;;;;;3.00;3.00;;;;;;;;2773491;51;8804;-65
2021/10/13 04:38:16;;;;;;;;;5.25;3.00;;;;;;;;2773425;51;8786;-64
2021/10/13 04:40:42;;;;;;;;;4.00;3.00;;;;;;;;2773060;51;8767;-64
2021/10/13 04:43:07;;;;;;;;;2.00;2.00;;;;;;;;2772956;51;8786;-66
2021/10/13 04:45:33;;;;;;;;;5.75;3.50;;;;;;;;2772959;51;8770;-66
2021/10/13 04:47:59;;;;;;;;;6.67;5.00;;;;;;;;2773002;51;8759;-65
2021/10/13 04:50:24;;;;;;;;;3.00;2.67;;;;;;;;2772933;51;11044;-65
2021/10/13 04:52:50;;;;;;;;;2.00;2.00;;;;;;;;2772993;51;8889;-66
2021/10/13 04:55:16;;;;;;;;;4.33;4.33;;;;;;;;2773193;51;8766;-67
2021/10/13 04:57:41;;;;;;;;;2.00;2.00;;;;;;;;2773343;51;8771;-68
2021/10/13 05:00:08;;;;;;;;;2.75;2.25;;;;;;;;2773273;51;8826;-65
2021/10/13 05:02:33;;;;;;;;;8.00;2.60;;;;;;;;2772914;51;8897;-65
2021/10/13 05:04:59;;;;;;;;;4.50;4.50;;;;;;;;2777909;51;8783;-65
2021/10/13 05:07:24;;;;;;;;;2.75;2.75;;;;;;;;2773118;51;9420;-64
2021/10/13 05:09:50;;;;;;;;;6.00;5.00;;;;;;;;2773217;51;8851;-65
2021/10/13 05:12:16;;;;;;;;;5.00;3.50;;;;;;;;2773231;51;8806;-66
2021/10/13 05:14:41;;;;;;;;;5.25;3.50;;;;;;;;2773011;51;8777;-66
2021/10/13 05:17:07;;;;;;;;;5.00;2.50;;;;;;;;2772981;51;8770;-67
2021/10/13 05:19:32;;;;;;;;;5.50;5.50;;;;;;;;2772897;51;8802;-68
2021/10/13 05:21:58;;;;;;;;;3.50;3.25;;;;;;;;2773206;51;8774;-66
2021/10/13 05:24:24;;;;;;;;;4.50;3.50;;;;;;;;2772943;51;8778;-64
2021/10/13 05:26:49;;;;;;;;;7.00;3.75;;;;;;;;2773157;51;8779;-64
2021/10/13 05:29:15;;;;;;;;;6.75;5.75;;;;;;;;2773207;51;8759;-65
2021/10/13 05:31:40;;;;;;;;;5.00;3.25;;;;;;;;2772997;51;8770;-64
2021/10/13 05:34:06;;;;;;;;;6.00;6.00;;;;;;;;2773208;51;8755;-63
2021/10/13 05:36:32;;;;;;;;;6.00;4.00;;;;;;;;2773049;51;8789;-65
2021/10/13 05:38:57;;;;;;;;;3.75;3.75;;;;;;;;2772968;51;8822;-65
2021/10/13 05:41:23;;;;;;;;;3.00;3.00;;;;;;;;2773166;51;8775;-66
2021/10/13 05:43:49;;;;;;;;;2.25;2.00;;;;;;;;2773742;51;9452;-65
2021/10/13 05:46:14;;;;;;;;;9.00;3.75;;;;;;;;2773903;51;10622;-65
2021/10/13 05:48:40;;;;;;;;;6.75;5.50;;;;;;;;2773727;51;8795;-66
2021/10/13 05:51:06;;;;;;;;;4.50;4.00;;;;;;;;2774188;51;8770;-66
2021/10/13 05:53:31;;;;;;;;;7.00;3.25;;;;;;;;2774090;51;8766;-65
2021/10/13 05:55:57;;;;;;;;;5.25;4.50;;;;;;;;2773719;51;8766;-65
2021/10/13 05:58:24;;;;;;;;;7.50;6.00;;;;;;;;2773995;51;8779;-66
2021/10/13 06:00:53;;;;;;;;;3.40;2.80;;;;;;;;2774041;51;9411;-67
2021/10/13 06:03:19;;;;;;;;;6.40;4.40;;;;;;;;2773630;51;8766;-66
2021/10/13 06:05:45;;;;;;;;;7.60;7.00;;;;;;;;2774150;51;8779;-66
2021/10/13 06:08:10;;;;;;;;;8.33;7.00;;;;;;;;2774001;51;9348;-65
2021/10/13 06:10:36;;;;;;;;;7.00;6.25;;;;;;;;2774025;51;8763;-66
2021/10/13 06:13:02;;;;;;;;;2.50;2.50;;;;;;;;2774270;51;8790;-67
2021/10/13 06:15:34;;;;;;;;;9.00;7.00;;;;;;;;2773830;51;8771;-65
2021/10/13 06:18:07;;;;;;;;;8.60;6.40;;;;;;;;2778675;51;8855;-64
2021/10/13 06:20:33;;;;;;;;;2.40;2.40;;;;;;;;2773633;51;9436;-65
2021/10/13 06:22:59;;;;;;;;;2.80;1.00;;;;;;;;2773560;51;8795;-66
2021/10/13 06:25:25;;;;;;;;;7.60;4.40;;;;;;;;2778271;51;8852;-65
2021/10/13 06:27:51;;;;;;;;;7.40;6.20;;;;;;;;2773723;51;8771;-66
2021/10/13 06:30:17;;;;;;;;;5.50;5.50;;;;;;;;2773547;51;8873;-65
2021/10/13 06:32:42;;;;;;;;;6.50;5.00;;;;;;;;2778498;51;8778;-65
2021/10/13 06:35:08;;;;;;;;;7.50;6.00;;;;;;;;2773741;51;8771;-65
2021/10/13 06:37:34;;;;;;;;;6.75;6.00;;;;;;;;2773832;51;8783;-66
2021/10/13 06:40:00;;;;;;;;;4.00;4.00;;;;;;;;2773658;51;8802;-65
2021/10/13 06:42:26;;;;;;;;;5.20;5.20;;;;;;;;2773712;51;11472;-64
2021/10/13 06:44:51;;;;;;;;;7.25;6.25;;;;;;;;2774190;51;9002;-66
2021/10/13 06:47:17;;;;;;;;;3.50;3.50;;;;;;;;2773639;51;8885;-66
2021/10/13 06:49:42;;;;;;;;;9.25;6.50;;;;;;;;2773520;51;8779;-66
2021/10/13 06:52:08;;;;;;;;;6.25;6.25;;;;;;;;2773731;51;8790;-66
2021/10/13 06:54:34;;;;;;;;;4.75;3.75;;;;;;;;2773302;51;8789;-65
2021/10/13 06:56:59;;;;;;;;;7.00;4.00;;;;;;;;2774077;51;8763;-66
2021/10/13 06:59:25;;;;;;;;;6.50;6.50;;;;;;;;2773402;51;8921;-67
2021/10/13 07:01:51;;;;;;;;;7.75;2.75;;;;;;;;2773070;51;8803;-70
2021/10/13 07:04:17;;;;;;;;;5.40;4.00;;;;;;;;2773654;51;8807;-68
2021/10/13 07:06:43;;;;;;;;;5.25;5.25;;;;;;;;2773598;51;8762;-66
2021/10/13 07:09:08;;;;;;;;;8.00;8.00;;;;;;;;2773525;51;8775;-66
2021/10/13 07:11:34;;;;;;;;;8.00;5.50;;;;;;;;2773529;51;8791;-64
2021/10/13 07:14:02;;;;;;;;;7.00;3.75;;;;;;;;2773625;51;8888;-67
2021/10/13 07:16:28;;;;;;;;;7.80;7.80;;;;;;;;2773476;51;8771;-66
2021/10/13 07:18:54;;;;;;;;;9.60;7.60;;;;;;;;2773267;51;8925;-66
2021/10/13 07:21:20;;;;;;;;;7.75;5.25;;;;;;;;2773791;51;8894;-67
2021/10/13 07:23:45;;;;;;;;;6.50;6.50;;;;;;;;2773565;51;8786;-66
2021/10/13 07:26:11;;;;;;;;;6.75;4.50;;;;;;;;2773520;51;8813;-65
2021/10/13 07:28:40;;;;;;;;;7.00;5.25;;;;;;;;2773429;51;8755;-65
2021/10/13 07:31:06;;;;;;;;;10.60;8.60;;;;;;;;2773392;51;8788;-67
2021/10/13 07:33:32;;;;;;;;;3.00;3.00;;;;;;;;2773415;51;8770;-66
2021/10/13 07:35:57;;;;;;;;;10.75;6.25;;;;;;;;2773429;51;8773;-66
2021/10/13 07:38:24;;;;;;;;;5.50;4.75;;;;;;;;2773459;51;8779;-67
2021/10/13 07:40:51;;;;;;;;;5.40;4.00;;;;;;;;2773490;51;8839;-62
2021/10/13 07:43:17;;;;;;;;;5.00;4.60;;;;;;;;2773243;51;8824;-61
2021/10/13 07:45:43;;;;;;;;;5.75;4.00;;;;;;;;2774142;51;8772;-62
2021/10/13 07:48:09;;;;;;;;;4.60;4.60;;;;;;;;2774717;51;8767;-63
2021/10/13 07:50:35;;;;;;;;;4.75;3.50;;;;;;;;2778683;51;8890;-64
2021/10/13 07:53:00;;;;;;;;;4.75;2.25;;;;;;;;2778438;51;8778;-64
2021/10/13 07:55:26;;;;;;;;;4.00;4.00;;;;;;;;2773076;51;8778;-66
2021/10/13 07:57:52;;;;;;;;;4.00;3.00;;;;;;;;2773255;51;8770;-65
2021/10/13 08:00:19;;;;;;;;;4.25;4.00;;;;;;;;2773211;51;8803;-65
2021/10/13 08:02:45;;;;;;;;;5.00;3.40;;;;;;;;2777087;51;8772;-66
2021/10/13 08:05:11;;;;;;;;;6.00;6.00;;;;;;;;2779190;51;8768;-65
2021/10/13 08:07:37;;;;;;;;;2.00;1.25;;;;;;;;2779110;51;8783;-64
2021/10/13 08:10:03;;;;;;;;;5.50;3.75;;;;;;;;2779477;51;8780;-62
2021/10/13 08:12:28;;;;;;;;;6.00;3.75;;;;;;;;2779457;51;8918;-63
2021/10/13 08:14:54;;;;;;;;;5.75;4.75;;;;;;;;2779398;51;8772;-64
2021/10/13 08:17:19;;;;;;;;;8.00;5.75;;;;;;;;2779714;51;8780;-64
2021/10/13 08:19:45;;;;;;;;;3.75;3.50;;;;;;;;2775544;51;8817;-63
2021/10/13 08:22:11;;;;;;;;;6.00;5.50;;;;;;;;2773211;51;8840;-63
2021/10/13 08:24:36;;;;;;;;;4.00;2.25;;;;;;;;2773267;51;8775;-64
2021/10/13 08:27:05;;;;;;;;;6.50;5.00;;;;;;;;2772846;51;8864;-64
2021/10/13 08:29:30;;;;;;;;;3.60;3.60;;;;;;;;2773152;51;8869;-61
2021/10/13 08:31:56;;;;;;;;;4.75;3.50;;;;;;;;2773694;51;8778;-63
2021/10/13 08:34:22;;;;;;;;;6.50;6.50;;;;;;;;2773116;51;8766;-63
2021/10/13 08:36:47;;;;;;;;;10.25;6.00;;;;;;;;2773175;51;8789;-62
2021/10/13 08:39:13;;;;;;;;;5.00;4.00;;;;;;;;2773061;51;8797;-61
2021/10/13 08:41:38;;;;;;;;;2.00;2.00;;;;;;;;2773382;51;8789;-61
2021/10/13 08:44:04;;;;;;;;;4.50;4.25;;;;;;;;2773654;51;8763;-63
2021/10/13 08:46:30;;;;;;;;;5.25;3.00;;;;;;;;2773343;51;8779;-60
2021/10/13 08:48:55;;;;;;;;;6.00;5.00;;;;;;;;2773081;51;8778;-64
2021/10/13 08:51:21;;;;;;;;;6.00;3.00;;;;;;;;2773315;51;8779;-63
2021/10/13 08:53:47;;;;;;;;;4.50;4.50;;;;;;;;2776733;51;8785;-64
2021/10/13 08:56:12;;;;;;;;;4.00;3.75;;;;;;;;2779275;51;8861;-64
2021/10/13 08:58:39;;;;;;;;;6.25;5.00;;;;;;;;2779056;51;8819;-63
2021/10/13 09:01:07;;;;;;;;;4.80;4.20;;;;;;;;2779089;51;8775;-65
2021/10/13 09:03:45;;;;;;;;;5.00;4.40;;;;;;;;2779533;51;8849;-62
2021/10/13 09:06:12;;;;;;;;;4.00;3.40;;;;;;;;2779075;51;8764;-62
2021/10/13 09:09:00;;;;;;;;;4.40;2.60;;;;;;;;2779094;51;8799;-64
2021/10/13 09:11:33;;;;;;;;;3.60;2.40;;;;;;;;2779175;51;8768;-64
2021/10/13 09:14:05;;;;;;;;;3.80;2.40;;;;;;;;2779497;51;8760;-63
2021/10/13 09:16:37;;;;;;;;;6.80;5.60;;;;;;;;2779418;51;9427;-64
2021/10/13 09:19:02;;;;;;;;;4.00;4.00;;;;;;;;2778922;51;8903;-63
2021/10/13 09:21:46;;;;;;;;;4.75;3.75;;;;;;;;2779033;51;8823;-65
2021/10/13 09:24:12;;;;;;;;;4.20;2.40;;;;;;;;2779100;51;8792;-64
2021/10/13 09:26:37;;;;;;;;;5.00;5.00;;;;;;;;2778928;51;8784;-62
2021/10/13 09:29:06;;;;;;;;;6.50;3.50;;;;;;;;2778976;51;8768;-62
2021/10/13 09:31:31;;;;;;;;;4.80;4.20;;;;;;;;2779089;51;8776;-64
2021/10/13 09:34:02;;;;;;;;;5.00;5.00;;;;;;;;2778911;51;8962;-63
2021/10/13 09:36:50;;;;;;;;;3.60;2.60;;;;;;;;2778977;51;8776;-62
2021/10/13 09:39:17;;;;;;;;;5.80;4.20;;;;;;;;2778391;51;8813;-64
2021/10/13 09:41:59;;;;;;;;;5.80;5.80;;;;;;;;2779114;51;8760;-60
2021/10/13 09:44:26;;;;;;;;;4.00;4.00;;;;;;;;2779014;51;8882;-60
2021/10/13 09:46:56;;;;;;;;;7.80;5.60;;;;;;;;2778973;51;8760;-59
2021/10/13 09:49:32;;;;;;;;;4.80;3.60;;;;;;;;2779291;51;8768;-61
2021/10/13 09:52:05;;;;;;;;;4.60;3.00;;;;;;;;2778968;51;8789;-64
2021/10/13 09:54:31;;;;;;;;;2.40;2.40;;;;;;;;2773649;51;8779;-64
2021/10/13 09:56:57;;;;;;;;;3.25;3.25;;;;;;;;2772999;51;8797;-63
2021/10/13 09:59:22;;;;;;;;;3.25;3.25;;;;;;;;2772993;51;8787;-64
2021/10/13 10:01:49;;;;;;;;;4.25;3.00;;;;;;;;2772763;51;8811;-63
2021/10/13 10:04:16;;;;;;;;;6.00;5.60;;;;;;;;2772626;51;8907;-63
2021/10/13 10:06:43;;;;;;;;;3.00;2.20;;;;;;;;2772858;51;8876;-62
2021/10/13 10:09:14;;;;;;;;;4.80;3.00;;;;;;;;2772614;51;8790;-64
2021/10/13 10:11:41;;;;;;;;;7.20;4.60;;;;;;;;2772861;51;8794;-61
2021/10/13 10:14:25;;;;;;;;;2.00;2.00;;;;;;;;2772443;51;8778;-62
2021/10/13 10:16:51;;;;;;;;;4.40;3.20;;;;;;;;2772642;51;8767;-60
2021/10/13 10:19:20;;;;;;;;;3.75;2.75;;;;;;;;2772552;51;8798;-59
2021/10/13 10:22:07;;;;;;;;;5.00;3.40;;;;;;;;2772768;51;8854;-65
2021/10/13 10:24:35;;;;;;;;;6.40;3.80;;;;;;;;2772924;51;8775;-60
2021/10/13 10:27:19;;;;;;;;;4.60;4.40;;;;;;;;2772597;51;9539;-62
2021/10/13 10:29:45;;;;;;;;;3.80;0.40;;;;;;;;2772980;51;8771;-61
2021/10/13 10:32:15;;;;;;;;;6.50;4.00;;;;;;;;2773637;51;8786;-59
2021/10/13 10:35:01;;;;;;;;;4.00;3.60;;;;;;;;2774110;51;8807;-61
2021/10/13 10:37:36;;;;;;;;;3.00;3.00;;;;;;;;2772649;51;8778;-64
2021/10/13 10:40:04;;;;;;;;;4.20;4.20;;;;;;;;2773196;51;8778;-66
2021/10/13 10:42:48;;;;;;;;;2.20;2.20;;;;;;;;2774020;51;8755;-62
2021/10/13 10:45:22;;;;;;;;;4.20;3.80;;;;;;;;2774864;51;8752;-66
2021/10/13 10:47:53;;;;;;;;;5.00;4.80;;;;;;;;2775233;51;8817;-61
2021/10/13 10:50:38;;;;;;;;;4.60;4.60;;;;;;;;2775280;51;8891;-61
2021/10/13 10:53:09;;;;;;;;;4.00;4.00;;;;;;;;2775503;51;8799;-63
2021/10/13 10:55:35;;;;;;;;;3.00;2.40;;;;;;;;2775470;51;8788;-62
2021/10/13 10:58:12;;;;;;;;;5.40;3.20;;;;;;;;2775455;51;9441;-62
2021/10/13 11:00:38;;;;;;;;;5.60;4.60;;;;;;;;2775066;51;9538;-65
2021/10/13 11:03:18;;;;;;;;;2.20;2.20;;;;;;;;2775324;51;8776;-65
2021/10/13 11:05:44;;;;;;;;;5.00;3.80;;;;;;;;2775464;51;8768;-64
2021/10/13 11:08:10;;;;;;;;;3.60;3.60;;;;;;;;2775644;51;8807;-62
2021/10/13 11:10:36;;;;;;;;;3.75;3.75;;;;;;;;2775597;51;8784;-62
2021/10/13 11:13:01;;;;;;;;;4.50;3.75;;;;;;;;2775867;51;8794;-63
2021/10/13 11:15:28;;;;;;;;;3.00;3.00;;;;;;;;2775673;51;8797;-61
2021/10/13 11:17:55;;;;;;;;;3.80;2.60;;;;;;;;2775556;51;8773;-62
2021/10/13 11:20:22;;;;;;;;;2.00;2.00;;;;;;;;2775335;51;8775;-63
2021/10/13 11:23:02;;;;;;;;;2.00;1.80;;;;;;;;2774619;51;8791;-61
2021/10/13 11:25:28;;;;;;;;;3.00;2.00;;;;;;;;2774606;51;8848;-63
2021/10/13 11:27:58;;;;;;;;;5.00;2.40;;;;;;;;2775529;51;8790;-61
2021/10/13 11:30:24;;;;;;;;;3.60;3.60;;;;;;;;2774905;51;8803;-62
2021/10/13 11:32:49;;;;;;;;;3.00;2.00;;;;;;;;2775561;51;8804;-63
2021/10/13 11:35:18;;;;;;;;;3.50;3.50;;;;;;;;2775489;51;11371;-62
2021/10/13 11:37:48;;;;;;;;;3.20;2.00;;;;;;;;2775046;51;11451;-62
2021/10/13 11:40:14;;;;;;;;;2.80;2.80;;;;;;;;2775052;51;8801;-63
2021/10/13 11:42:39;;;;;;;;;4.40;4.00;;;;;;;;2775190;51;8784;-63
2021/10/13 11:45:05;;;;;;;;;3.00;3.00;;;;;;;;2775461;51;8868;-63
2021/10/13 11:47:32;;;;;;;;;3.20;2.00;;;;;;;;2775735;51;8772;-64
2021/10/13 11:50:00;;;;;;;;;3.60;2.60;;;;;;;;2775140;51;8810;-63
2021/10/13 11:52:25;;;;;;;;;4.40;3.20;;;;;;;;2775092;51;9530;-63
2021/10/13 11:55:03;;;;;;;;;2.00;2.00;;;;;;;;2775227;51;8790;-61
2021/10/13 11:57:28;;;;;;;;;3.20;3.20;;;;;;;;2775534;51;8882;-63
2021/10/13 12:00:12;;;;;;;;;4.75;3.00;;;;;;;;2775192;51;8895;-66
2021/10/13 12:02:38;;;;;;;;;4.80;3.00;;;;;;;;2775525;51;11495;-64
2021/10/13 12:05:05;;;;;;;;;2.50;2.50;;;;;;;;2775285;51;8776;-61
2021/10/13 12:07:39;;;;;;;;;7.80;4.00;;;;;;;;2775131;51;8756;-62
2021/10/13 12:10:05;;;;;;;;;4.20;3.80;;;;;;;;2775591;51;8783;-63
2021/10/13 12:12:30;;;;;;;;;2.00;2.00;;;;;;;;2775015;51;8819;-63
2021/10/13 12:14:56;;;;;;;;;4.00;3.00;;;;;;;;2775564;51;8771;-65
2021/10/13 12:17:31;;;;;;;;;3.00;2.40;;;;;;;;2775247;51;9429;-64
2021/10/13 12:19:58;;;;;;;;;1.80;1.00;;;;;;;;2775246;51;8778;-64
2021/10/13 12:22:24;;;;;;;;;4.20;4.20;;;;;;;;2775302;51;8775;-62
2021/10/13 12:24:50;;;;;;;;;3.40;3.40;;;;;;;;2775166;51;8775;-64
2021/10/13 12:27:25;;;;;;;;;3.25;2.50;;;;;;;;2774927;51;8780;-64
2021/10/13 12:29:51;;;;;;;;;3.20;2.00;;;;;;;;2775377;51;8824;-64
2021/10/13 12:32:18;;;;;;;;;1.00;1.00;;;;;;;;2775309;51;9396;-69
2021/10/13 12:34:44;;;;;;;;;1.20;1.20;;;;;;;;2774815;51;8760;-65
2021/10/13 12:37:10;;;;;;;;;3.00;2.00;;;;;;;;2775251;51;8798;-65
2021/10/13 12:39:36;;;;;;;;;1.75;1.00;;;;;;;;2775181;51;8801;-66
2021/10/13 12:42:05;;;;;;;;;3.75;2.00;;;;;;;;2775063;51;10898;-64
2021/10/13 12:44:31;;;;;;;;;1.00;1.00;;;;;;;;2775157;51;8809;-64
2021/10/13 12:47:04;;;;;;;;;2.00;1.00;;;;;;;;2774999;51;8784;-65
2021/10/13 12:49:34;;;;;;;;;1.00;1.00;;;;;;;;2775117;51;8850;-63
2021/10/13 12:52:00;;;;;;;;;2.00;1.00;;;;;;;;2774285;51;8831;-62
2021/10/13 12:54:27;;;;;;;;;3.25;1.50;;;;;;;;2775390;51;9436;-64
2021/10/13 12:56:52;;;;;;;;;4.60;2.00;;;;;;;;2774266;51;11431;-65
2021/10/13 12:59:18;;;;;;;;;3.00;2.75;;;;;;;;2774581;51;8802;-61
2021/10/13 13:01:44;;;;;;;;;2.00;2.00;;;;;;;;2774646;51;8783;-64
2021/10/13 13:04:09;;;;;;;;;3.00;2.00;;;;;;;;2775260;51;8783;-66
2021/10/13 13:06:35;;;;;;;;;4.50;3.75;;;;;;;;2773005;51;8759;-64
2021/10/13 13:09:01;;;;;;;;;2.00;1.00;;;;;;;;2773068;51;8790;-66
2021/10/13 13:11:26;;;;;;;;;1.75;1.75;;;;;;;;2773253;51;8948;-64
2021/10/13 13:13:52;;;;;;;;;3.50;2.25;;;;;;;;2773393;51;9403;-64
2021/10/13 13:16:18;;;;;;;;;2.00;2.00;;;;;;;;2773243;51;9433;-64
2021/10/13 13:18:44;;;;;;;;;2.40;2.00;;;;;;;;2772756;51;10169;-62
2021/10/13 13:21:10;;;;;;;;;2.00;2.00;;;;;;;;2772945;51;8783;-67
2021/10/13 13:23:35;;;;;;;;;3.25;2.00;;;;;;;;2773130;51;8767;-67
2021/10/13 13:26:01;;;;;;;;;4.75;2.00;;;;;;;;2772963;51;8771;-64
2021/10/13 13:28:27;;;;;;;;;2.25;2.00;;;;;;;;2773080;51;11382;-65
2021/10/13 13:30:53;;;;;;;;;1.00;1.00;;;;;;;;2773054;51;11343;-63
2021/10/13 13:33:19;;;;;;;;;3.00;2.25;;;;;;;;2772965;51;8805;-67
2021/10/13 13:35:44;;;;;;;;;4.00;4.00;;;;;;;;2772895;51;8781;-64
2021/10/13 13:38:10;;;;;;;;;3.00;2.00;;;;;;;;2773097;51;8783;-62
2021/10/13 13:40:36;;;;;;;;;2.75;2.00;;;;;;;;2772843;51;8818;-65
2021/10/13 13:43:03;;;;;;;;;2.20;2.20;;;;;;;;2773461;51;8779;-65
2021/10/13 13:45:29;;;;;;;;;3.80;2.00;;;;;;;;2772211;51;9588;-65
2021/10/13 13:47:54;;;;;;;;;6.75;2.75;;;;;;;;2772996;51;8775;-65
2021/10/13 13:50:20;;;;;;;;;4.00;3.25;;;;;;;;2772521;51;8783;-64
2021/10/13 13:52:46;;;;;;;;;3.40;3.40;;;;;;;;2774043;51;8874;-68
2021/10/13 13:55:11;;;;;;;;;2.50;2.00;;;;;;;;2778748;51;8883;-65
2021/10/13 13:57:37;;;;;;;;;3.00;1.75;;;;;;;;2779216;51;8756;-64
2021/10/13 14:00:04;;;;;;;;;1.75;1.75;;;;;;;;2778858;51;8816;-64
2021/10/13 14:02:29;;;;;;;;;1.60;1.00;;;;;;;;2778888;51;8891;-64
2021/10/13 14:04:56;;;;;;;;;3.00;3.00;;;;;;;;2779573;51;8787;-66
2021/10/13 14:07:21;;;;;;;;;3.00;2.00;;;;;;;;2779654;51;8799;-63
2021/10/13 14:09:47;;;;;;;;;3.25;2.25;;;;;;;;2779598;51;8768;-63
2021/10/13 14:12:13;;;;;;;;;3.00;2.00;;;;;;;;2779637;51;8776;-66
2021/10/13 14:14:38;;;;;;;;;3.50;3.00;;;;;;;;2779747;51;9405;-66
2021/10/13 14:17:04;;;;;;;;;2.50;1.25;;;;;;;;2779703;51;8764;-65
2021/10/13 14:19:29;;;;;;;;;3.00;3.00;;;;;;;;2779689;51;8796;-65
2021/10/13 14:21:55;;;;;;;;;5.50;2.25;;;;;;;;2779594;51;8780;-64
2021/10/13 14:24:21;;;;;;;;;3.50;3.00;;;;;;;;2784397;51;8788;-65
2021/10/13 14:26:46;;;;;;;;;2.25;2.25;;;;;;;;2779972;51;8784;-64
2021/10/13 14:29:12;;;;;;;;;2.00;2.00;;;;;;;;2779882;51;8786;-65
2021/10/13 14:31:37;;;;;;;;;2.50;2.00;;;;;;;;2779958;51;8776;-62
2021/10/13 14:34:03;;;;;;;;;2.00;2.00;;;;;;;;2779613;51;8779;-64
2021/10/13 14:36:29;;;;;;;;;1.00;1.00;;;;;;;;2779680;51;8895;-63
2021/10/13 14:38:54;;;;;;;;;3.50;2.25;;;;;;;;2779643;51;8772;-64
2021/10/13 14:41:20;;;;;;;;;3.50;1.00;;;;;;;;2779503;51;8903;-63
2021/10/13 14:43:46;;;;;;;;;4.50;2.75;;;;;;;;2779543;51;8782;-64
2021/10/13 14:46:12;;;;;;;;;1.75;1.75;;;;;;;;2779847;51;9021;-65
2021/10/13 14:48:37;;;;;;;;;2.00;2.00;;;;;;;;2779615;51;8779;-65
2021/10/13 14:51:03;;;;;;;;;3.75;3.75;;;;;;;;2779806;51;8768;-68
2021/10/13 14:53:30;;;;;;;;;3.00;3.00;;;;;;;;2776730;51;9565;-67
2021/10/13 14:55:55;;;;;;;;;2.00;1.40;;;;;;;;2773456;51;9777;-63
2021/10/13 14:58:22;;;;;;;;;2.00;2.00;;;;;;;;2774003;51;9467;-65